sensor_id;sensor_type;location;lat;lon;timestamp;pressure;altitude;pressure_sealevel;temperature;humidity
55757;BME280;41676;44.610;44.078;2023-06-22T00:04:27;100028.78;;;16.61;71.93
55757;BME280;41676;44.610;44.078;2023-06-22T00:09:27;100103.06;;;16.99;72.10
55757;BME280;41676;44.610;44.078;2023-06-22T00:14:28;100100.38;;;17.05;72.17
55757;BME280;41676;44.610;44.078;2023-06-22T00:19:29;99947.44;;;15.97;72.36
55757;BME280;41676;44.610;44.078;2023-06-22T00:24:30;100026.66;;;16.31;73.14
55757;BME280;41676;44.610;44.078;2023-06-22T00:29:30;100099.53;;;16.60;73.85
55757;BME280;41676;44.610;44.078;2023-06-22T00:34:31;100105.56;;;16.55;74.52
55757;BME280;41676;44.610;44.078;2023-06-22T00:39:32;100110.91;;;16.55;74.06
55757;BME280;41676;44.610;44.078;2023-06-22T00:44:35;100046.50;;;16.17;74.41
55757;BME280;41676;44.610;44.078;2023-06-22T00:49:36;100091.78;;;16.38;74.33
55757;BME280;41676;44.610;44.078;2023-06-22T00:54:37;100061.59;;;16.11;74.40
55757;BME280;41676;44.610;44.078;2023-06-22T00:59:38;100125.44;;;16.34;74.41
55757;BME280;41676;44.610;44.078;2023-06-22T01:04:40;100114.31;;;16.24;74.38
55757;BME280;41676;44.610;44.078;2023-06-22T01:09:51;100126.66;;;16.32;77.44
55757;BME280;41676;44.610;44.078;2023-06-22T01:15:02;100124.44;;;16.22;75.78
55757;BME280;41676;44.610;44.078;2023-06-22T01:20:07;100118.44;;;16.20;76.08
55757;BME280;41676;44.610;44.078;2023-06-22T01:25:28;100135.50;;;16.39;78.17
55757;BME280;41676;44.610;44.078;2023-06-22T01:30:32;100120.09;;;16.28;75.31
55757;BME280;41676;44.610;44.078;2023-06-22T01:35:34;100115.56;;;16.22;75.56
55757;BME280;41676;44.610;44.078;2023-06-22T01:40:36;100118.00;;;16.36;76.76
55757;BME280;41676;44.610;44.078;2023-06-22T01:45:37;100095.16;;;16.20;76.70
55757;BME280;41676;44.610;44.078;2023-06-22T01:50:39;100138.19;;;16.39;76.86
55757;BME280;41676;44.610;44.078;2023-06-22T01:55:40;100149.50;;;16.48;76.80
55757;BME280;41676;44.610;44.078;2023-06-22T02:00:57;100087.97;;;16.08;78.45
55757;BME280;41676;44.610;44.078;2023-06-22T02:06:04;100156.31;;;16.50;78.11
55757;BME280;41676;44.610;44.078;2023-06-22T02:11:07;100152.13;;;16.67;76.83
55757;BME280;41676;44.610;44.078;2023-06-22T02:16:12;100183.34;;;17.07;78.26
55757;BME280;41676;44.610;44.078;2023-06-22T02:21:13;100192.00;;;17.41;76.34
55757;BME280;41676;44.610;44.078;2023-06-22T02:26:17;100202.72;;;17.79;76.55
55757;BME280;41676;44.610;44.078;2023-06-22T02:31:19;100201.81;;;18.54;74.36
55757;BME280;41676;44.610;44.078;2023-06-22T02:36:20;100193.59;;;19.34;72.47
55757;BME280;41676;44.610;44.078;2023-06-22T02:41:22;100199.16;;;20.28;69.65
55757;BME280;41676;44.610;44.078;2023-06-22T02:46:23;100196.47;;;21.04;67.49
55757;BME280;41676;44.610;44.078;2023-06-22T02:51:24;100172.47;;;21.81;65.20
55757;BME280;41676;44.610;44.078;2023-06-22T02:56:25;100186.31;;;22.79;62.22
55757;BME280;41676;44.610;44.078;2023-06-22T03:01:27;100197.59;;;23.75;59.93
55757;BME280;41676;44.610;44.078;2023-06-22T03:06:28;100200.63;;;24.58;57.65
55757;BME280;41676;44.610;44.078;2023-06-22T03:11:29;100186.00;;;24.69;55.88
55757;BME280;41676;44.610;44.078;2023-06-22T03:16:31;100202.72;;;25.09;55.01
55757;BME280;41676;44.610;44.078;2023-06-22T03:21:31;100146.59;;;24.62;54.45
55757;BME280;41676;44.610;44.078;2023-06-22T03:26:33;100150.88;;;25.25;54.01
55757;BME280;41676;44.610;44.078;2023-06-22T03:31:34;100216.47;;;26.01;53.32
55757;BME280;41676;44.610;44.078;2023-06-22T03:36:35;100225.97;;;26.13;53.15
55757;BME280;41676;44.610;44.078;2023-06-22T03:41:36;100221.19;;;26.85;51.37
55757;BME280;41676;44.610;44.078;2023-06-22T03:46:37;100117.34;;;26.22;51.04
55757;BME280;41676;44.610;44.078;2023-06-22T03:51:37;100241.78;;;27.12;50.98
55757;BME280;41676;44.610;44.078;2023-06-22T03:56:39;100114.56;;;26.37;50.81
55757;BME280;41676;44.610;44.078;2023-06-22T04:01:40;100224.63;;;27.95;48.56
55757;BME280;41676;44.610;44.078;2023-06-22T04:06:40;100243.84;;;28.92;46.73
55757;BME280;41676;44.610;44.078;2023-06-22T04:11:41;100188.75;;;29.03;45.30
55757;BME280;41676;44.610;44.078;2023-06-22T04:16:42;100239.50;;;29.71;44.84
55757;BME280;41676;44.610;44.078;2023-06-22T04:21:44;100234.50;;;29.92;43.55
55757;BME280;41676;44.610;44.078;2023-06-22T04:26:45;100238.16;;;28.64;45.64
55757;BME280;41676;44.610;44.078;2023-06-22T04:31:47;100259.97;;;28.11;47.00
55757;BME280;41676;44.610;44.078;2023-06-22T04:36:51;100248.91;;;29.03;45.14
55757;BME280;41676;44.610;44.078;2023-06-22T04:41:52;100247.88;;;29.94;43.61
55757;BME280;41676;44.610;44.078;2023-06-22T04:46:55;100253.91;;;30.70;42.57
55757;BME280;41676;44.610;44.078;2023-06-22T04:52:01;100247.28;;;30.57;42.25
55757;BME280;41676;44.610;44.078;2023-06-22T04:57:03;100258.13;;;30.81;41.95
55757;BME280;41676;44.610;44.078;2023-06-22T05:02:05;100264.66;;;30.53;42.34
55757;BME280;41676;44.610;44.078;2023-06-22T05:07:06;100183.66;;;29.86;42.10
55757;BME280;41676;44.610;44.078;2023-06-22T05:12:07;100259.31;;;29.44;43.72
55757;BME280;41676;44.610;44.078;2023-06-22T05:17:08;100257.22;;;29.36;43.60
55757;BME280;41676;44.610;44.078;2023-06-22T05:22:16;100271.13;;;29.21;43.53
55757;BME280;41676;44.610;44.078;2023-06-22T05:27:17;100186.50;;;28.62;44.63
55757;BME280;41676;44.610;44.078;2023-06-22T05:32:18;100185.78;;;29.00;44.24
55757;BME280;41676;44.610;44.078;2023-06-22T05:37:19;100230.53;;;29.28;44.14
55757;BME280;41676;44.610;44.078;2023-06-22T05:42:20;100251.22;;;29.15;44.01
55757;BME280;41676;44.610;44.078;2023-06-22T05:47:20;100271.81;;;28.59;44.95
55757;BME280;41676;44.610;44.078;2023-06-22T05:52:23;100229.38;;;28.67;44.16
55757;BME280;41676;44.610;44.078;2023-06-22T05:57:23;100255.75;;;29.01;43.67
55757;BME280;41676;44.610;44.078;2023-06-22T06:02:24;100262.75;;;29.31;43.83
55757;BME280;41676;44.610;44.078;2023-06-22T06:07:25;100248.13;;;29.22;43.18
55757;BME280;41676;44.610;44.078;2023-06-22T06:12:26;100262.03;;;29.25;43.41
55757;BME280;41676;44.610;44.078;2023-06-22T06:17:27;100258.63;;;29.52;42.78
55757;BME280;41676;44.610;44.078;2023-06-22T06:22:28;100239.25;;;28.87;42.85
55757;BME280;41676;44.610;44.078;2023-06-22T06:27:28;100261.34;;;28.90;43.58
55757;BME280;41676;44.610;44.078;2023-06-22T06:32:30;100270.44;;;28.86;43.31
55757;BME280;41676;44.610;44.078;2023-06-22T06:37:31;100245.66;;;28.77;43.02
55757;BME280;41676;44.610;44.078;2023-06-22T06:42:31;100261.41;;;29.09;42.53
55757;BME280;41676;44.610;44.078;2023-06-22T06:47:32;100262.16;;;29.34;42.58
55757;BME280;41676;44.610;44.078;2023-06-22T06:52:33;100262.91;;;29.58;41.35
55757;BME280;41676;44.610;44.078;2023-06-22T06:57:34;100253.38;;;29.37;40.93
55757;BME280;41676;44.610;44.078;2023-06-22T07:02:35;100268.59;;;29.24;40.14
55757;BME280;41676;44.610;44.078;2023-06-22T07:07:36;100228.78;;;28.70;40.96
55757;BME280;41676;44.610;44.078;2023-06-22T07:12:37;100274.66;;;29.02;39.25
55757;BME280;41676;44.610;44.078;2023-06-22T07:17:38;100266.66;;;28.82;38.07
55757;BME280;41676;44.610;44.078;2023-06-22T07:22:44;100263.88;;;29.11;38.01
55757;BME280;41676;44.610;44.078;2023-06-22T07:27:45;100272.59;;;29.13;36.06
55757;BME280;41676;44.610;44.078;2023-06-22T07:32:46;100268.91;;;28.99;38.46
55757;BME280;41676;44.610;44.078;2023-06-22T07:37:47;100263.81;;;29.35;36.46
55757;BME280;41676;44.610;44.078;2023-06-22T07:42:48;100196.69;;;28.81;35.96
55757;BME280;41676;44.610;44.078;2023-06-22T07:47:50;100272.53;;;29.37;34.74
55757;BME280;41676;44.610;44.078;2023-06-22T07:52:51;100241.28;;;29.62;33.87
55757;BME280;41676;44.610;44.078;2023-06-22T07:57:53;100275.03;;;29.33;34.26
55757;BME280;41676;44.610;44.078;2023-06-22T08:02:54;100251.41;;;28.76;34.15
55757;BME280;41676;44.610;44.078;2023-06-22T08:07:54;100270.22;;;29.25;32.99
55757;BME280;41676;44.610;44.078;2023-06-22T08:12:56;100228.50;;;29.52;33.19
55757;BME280;41676;44.610;44.078;2023-06-22T08:17:56;100174.84;;;29.38;32.72
55757;BME280;41676;44.610;44.078;2023-06-22T08:22:58;100261.69;;;30.21;31.82
55757;BME280;41676;44.610;44.078;2023-06-22T08:28:06;100239.19;;;30.52;32.15
55757;BME280;41676;44.610;44.078;2023-06-22T08:33:07;100161.47;;;30.15;31.39
55757;BME280;41676;44.610;44.078;2023-06-22T08:38:08;100252.50;;;30.86;31.35
55757;BME280;41676;44.610;44.078;2023-06-22T08:43:09;100177.97;;;30.43;31.08
55757;BME280;41676;44.610;44.078;2023-06-22T08:48:10;100237.97;;;31.00;30.87
55757;BME280;41676;44.610;44.078;2023-06-22T08:53:10;100172.88;;;30.50;30.98
55757;BME280;41676;44.610;44.078;2023-06-22T08:58:11;100171.75;;;30.51;30.33
55757;BME280;41676;44.610;44.078;2023-06-22T09:03:15;100247.31;;;30.71;29.45
55757;BME280;41676;44.610;44.078;2023-06-22T09:08:15;100216.53;;;30.60;30.87
55757;BME280;41676;44.610;44.078;2023-06-22T09:13:16;100242.25;;;30.78;30.10
55757;BME280;41676;44.610;44.078;2023-06-22T09:18:17;100189.03;;;30.38;29.55
55757;BME280;41676;44.610;44.078;2023-06-22T09:23:18;100240.72;;;31.00;30.43
55757;BME280;41676;44.610;44.078;2023-06-22T09:28:18;100246.69;;;31.15;29.58
55757;BME280;41676;44.610;44.078;2023-06-22T09:33:19;100237.59;;;31.43;29.39
55757;BME280;41676;44.610;44.078;2023-06-22T09:38:20;100231.88;;;31.98;28.87
55757;BME280;41676;44.610;44.078;2023-06-22T09:43:21;100239.00;;;31.99;28.46
55757;BME280;41676;44.610;44.078;2023-06-22T09:48:22;100216.59;;;31.83;28.44
55757;BME280;41676;44.610;44.078;2023-06-22T09:53:22;100171.94;;;30.96;28.98
55757;BME280;41676;44.610;44.078;2023-06-22T09:58:23;100237.47;;;30.98;29.06
55757;BME280;41676;44.610;44.078;2023-06-22T10:03:24;100242.34;;;31.01;29.27
55757;BME280;41676;44.610;44.078;2023-06-22T10:08:25;100220.31;;;30.92;29.37
55757;BME280;41676;44.610;44.078;2023-06-22T10:13:25;100226.63;;;31.29;28.37
55757;BME280;41676;44.610;44.078;2023-06-22T10:18:26;100230.69;;;30.81;28.97
55757;BME280;41676;44.610;44.078;2023-06-22T10:23:27;100217.19;;;30.85;28.88
55757;BME280;41676;44.610;44.078;2023-06-22T10:28:28;100206.69;;;30.59;29.21
55757;BME280;41676;44.610;44.078;2023-06-22T10:33:29;100216.34;;;30.57;28.55
55757;BME280;41676;44.610;44.078;2023-06-22T10:38:29;100214.00;;;31.05;28.19
55757;BME280;41676;44.610;44.078;2023-06-22T10:43:30;100143.13;;;30.85;28.08
55757;BME280;41676;44.610;44.078;2023-06-22T10:48:31;100202.84;;;31.24;26.58
55757;BME280;41676;44.610;44.078;2023-06-22T10:53:32;100156.72;;;30.76;27.78
55757;BME280;41676;44.610;44.078;2023-06-22T10:58:32;100196.66;;;30.82;27.76
55757;BME280;41676;44.610;44.078;2023-06-22T11:03:33;100168.41;;;30.68;27.17
55757;BME280;41676;44.610;44.078;2023-06-22T11:08:34;100194.44;;;30.84;27.83
55757;BME280;41676;44.610;44.078;2023-06-22T11:13:34;100132.56;;;30.51;27.58
55757;BME280;41676;44.610;44.078;2023-06-22T11:18:35;100182.25;;;31.13;27.00
55757;BME280;41676;44.610;44.078;2023-06-22T11:23:36;100201.19;;;31.01;27.26
55757;BME280;41676;44.610;44.078;2023-06-22T11:28:37;100204.75;;;31.01;26.65
55757;BME280;41676;44.610;44.078;2023-06-22T11:33:38;100188.19;;;31.29;26.89
55757;BME280;41676;44.610;44.078;2023-06-22T11:38:38;100130.41;;;30.75;27.39
55757;BME280;41676;44.610;44.078;2023-06-22T11:43:40;100186.25;;;30.93;27.39
55757;BME280;41676;44.610;44.078;2023-06-22T11:48:41;100193.47;;;30.75;26.97
55757;BME280;41676;44.610;44.078;2023-06-22T11:53:42;100162.75;;;30.37;27.31
55757;BME280;41676;44.610;44.078;2023-06-22T11:58:43;100161.28;;;30.12;27.62
55757;BME280;41676;44.610;44.078;2023-06-22T12:03:44;100183.88;;;29.90;28.13
55757;BME280;41676;44.610;44.078;2023-06-22T12:08:44;100191.78;;;29.91;27.84
55757;BME280;41676;44.610;44.078;2023-06-22T12:13:45;100188.88;;;30.15;27.31
55757;BME280;41676;44.610;44.078;2023-06-22T12:18:46;100181.22;;;30.31;25.89
55757;BME280;41676;44.610;44.078;2023-06-22T12:23:47;100184.81;;;30.13;26.19
55757;BME280;41676;44.610;44.078;2023-06-22T12:28:48;100180.63;;;29.36;25.60
55757;BME280;41676;44.610;44.078;2023-06-22T12:33:48;100163.47;;;29.11;26.21
55757;BME280;41676;44.610;44.078;2023-06-22T12:38:49;100138.63;;;29.60;25.36
55757;BME280;41676;44.610;44.078;2023-06-22T12:43:50;100130.03;;;30.13;24.72
55757;BME280;41676;44.610;44.078;2023-06-22T12:48:51;100159.28;;;30.31;24.07
55757;BME280;41676;44.610;44.078;2023-06-22T12:53:51;100188.72;;;30.53;24.30
55757;BME280;41676;44.610;44.078;2023-06-22T12:58:52;100216.63;;;30.69;23.89
55757;BME280;41676;44.610;44.078;2023-06-22T13:03:53;100224.69;;;30.52;23.02
55757;BME280;41676;44.610;44.078;2023-06-22T13:08:54;100209.16;;;30.00;24.58
55757;BME280;41676;44.610;44.078;2023-06-22T13:13:55;100179.97;;;30.10;24.82
55757;BME280;41676;44.610;44.078;2023-06-22T13:18:55;100213.09;;;30.55;23.98
55757;BME280;41676;44.610;44.078;2023-06-22T13:23:56;100203.13;;;30.45;24.15
55757;BME280;41676;44.610;44.078;2023-06-22T13:28:57;100139.88;;;30.14;23.79
55757;BME280;41676;44.610;44.078;2023-06-22T13:33:58;100232.13;;;30.79;23.26
55757;BME280;41676;44.610;44.078;2023-06-22T13:38:58;100218.41;;;30.79;23.07
55757;BME280;41676;44.610;44.078;2023-06-22T13:43:59;100236.66;;;30.83;22.36
55757;BME280;41676;44.610;44.078;2023-06-22T13:49:00;100228.75;;;30.82;22.43
55757;BME280;41676;44.610;44.078;2023-06-22T13:54:02;100232.91;;;30.79;22.35
55757;BME280;41676;44.610;44.078;2023-06-22T13:59:03;100238.88;;;30.67;21.80
55757;BME280;41676;44.610;44.078;2023-06-22T14:04:04;100230.84;;;30.57;22.56
55757;BME280;41676;44.610;44.078;2023-06-22T14:09:05;100237.84;;;30.36;22.05
55757;BME280;41676;44.610;44.078;2023-06-22T14:14:05;100184.88;;;29.80;22.32
55757;BME280;41676;44.610;44.078;2023-06-22T14:19:06;100259.81;;;30.17;22.52
55757;BME280;41676;44.610;44.078;2023-06-22T14:24:07;100193.38;;;29.78;21.85
55757;BME280;41676;44.610;44.078;2023-06-22T14:29:08;100239.50;;;30.04;22.24
55757;BME280;41676;44.610;44.078;2023-06-22T14:34:08;100270.38;;;29.91;22.23
55757;BME280;41676;44.610;44.078;2023-06-22T14:39:09;100261.00;;;29.40;22.65
55757;BME280;41676;44.610;44.078;2023-06-22T14:44:10;100283.47;;;29.18;22.45
55757;BME280;41676;44.610;44.078;2023-06-22T14:49:11;100286.19;;;29.18;22.49
55757;BME280;41676;44.610;44.078;2023-06-22T14:54:12;100283.69;;;29.22;22.13
55757;BME280;41676;44.610;44.078;2023-06-22T14:59:13;100289.94;;;29.03;22.01
55757;BME280;41676;44.610;44.078;2023-06-22T15:04:13;100291.25;;;28.82;22.06
55757;BME280;41676;44.610;44.078;2023-06-22T15:09:14;100298.06;;;28.84;21.95
55757;BME280;41676;44.610;44.078;2023-06-22T15:14:15;100300.09;;;28.74;22.56
55757;BME280;41676;44.610;44.078;2023-06-22T15:19:16;100310.03;;;28.64;22.42
55757;BME280;41676;44.610;44.078;2023-06-22T15:24:17;100304.69;;;28.54;22.56
55757;BME280;41676;44.610;44.078;2023-06-22T15:29:17;100314.44;;;28.31;23.10
55757;BME280;41676;44.610;44.078;2023-06-22T15:34:19;100312.06;;;27.85;23.42
55757;BME280;41676;44.610;44.078;2023-06-22T15:39:19;100333.22;;;27.59;23.71
55757;BME280;41676;44.610;44.078;2023-06-22T15:44:21;100324.63;;;27.31;24.35
55757;BME280;41676;44.610;44.078;2023-06-22T15:49:22;100254.19;;;26.79;24.69
55757;BME280;41676;44.610;44.078;2023-06-22T15:54:23;100332.03;;;27.21;25.41
55757;BME280;41676;44.610;44.078;2023-06-22T15:59:24;100321.97;;;27.11;25.18
55757;BME280;41676;44.610;44.078;2023-06-22T16:04:25;100342.72;;;27.02;25.51
55757;BME280;41676;44.610;44.078;2023-06-22T16:09:26;100347.38;;;26.86;25.78
55757;BME280;41676;44.610;44.078;2023-06-22T16:14:27;100274.16;;;26.23;26.22
55757;BME280;41676;44.610;44.078;2023-06-22T16:19:28;100348.78;;;26.48;26.80
55757;BME280;41676;44.610;44.078;2023-06-22T16:24:29;100289.41;;;25.88;27.17
55757;BME280;41676;44.610;44.078;2023-06-22T16:29:29;100283.34;;;25.50;28.81
55757;BME280;41676;44.610;44.078;2023-06-22T16:34:30;100355.72;;;25.62;29.29
55757;BME280;41676;44.610;44.078;2023-06-22T16:39:31;100292.06;;;24.90;32.08
55757;BME280;41676;44.610;44.078;2023-06-22T16:44:32;100374.44;;;25.00;32.79
55757;BME280;41676;44.610;44.078;2023-06-22T16:49:33;100380.59;;;24.80;32.93
55757;BME280;41676;44.610;44.078;2023-06-22T16:54:35;100389.69;;;24.64;33.36
55757;BME280;41676;44.610;44.078;2023-06-22T16:59:36;100250.63;;;23.60;32.37
55757;BME280;41676;44.610;44.078;2023-06-22T17:04:38;100343.81;;;24.03;31.71
55757;BME280;41676;44.610;44.078;2023-06-22T17:09:42;100403.44;;;24.20;31.78
55757;BME280;41676;44.610;44.078;2023-06-22T17:14:45;100416.16;;;24.20;31.62
55757;BME280;41676;44.610;44.078;2023-06-22T17:19:46;100405.94;;;24.00;32.15
55757;BME280;41676;44.610;44.078;2023-06-22T17:24:48;100443.03;;;23.94;32.24
55757;BME280;41676;44.610;44.078;2023-06-22T17:30:03;100352.06;;;23.20;33.86
55757;BME280;41676;44.610;44.078;2023-06-22T17:35:04;100418.97;;;23.37;33.74
55757;BME280;41676;44.610;44.078;2023-06-22T17:40:14;100467.59;;;23.43;34.54
55757;BME280;41676;44.610;44.078;2023-06-22T17:45:22;100474.72;;;23.11;36.00
55757;BME280;41676;44.610;44.078;2023-06-22T17:50:24;100481.16;;;22.76;37.37
55757;BME280;41676;44.610;44.078;2023-06-22T17:55:26;100487.59;;;22.41;39.64
55757;BME280;41676;44.610;44.078;2023-06-22T18:00:27;100483.06;;;22.30;37.76
55757;BME280;41676;44.610;44.078;2023-06-22T18:05:33;100494.81;;;22.36;37.20
55757;BME280;41676;44.610;44.078;2023-06-22T18:10:35;100505.72;;;22.41;36.42
55757;BME280;41676;44.610;44.078;2023-06-22T18:15:37;100464.91;;;22.02;37.02
55757;BME280;41676;44.610;44.078;2023-06-22T18:20:39;100509.94;;;22.08;38.08
55757;BME280;41676;44.610;44.078;2023-06-22T18:25:41;100478.25;;;21.80;39.03
55757;BME280;41676;44.610;44.078;2023-06-22T18:30:45;100433.56;;;21.37;40.09
55757;BME280;41676;44.610;44.078;2023-06-22T18:35:49;100515.78;;;21.64;40.90
55757;BME280;41676;44.610;44.078;2023-06-22T18:40:52;100502.88;;;21.43;41.02
55757;BME280;41676;44.610;44.078;2023-06-22T18:45:52;100516.56;;;21.30;42.84
55757;BME280;41676;44.610;44.078;2023-06-22T18:51:10;100480.97;;;20.86;44.55
55757;BME280;41676;44.610;44.078;2023-06-22T18:56:13;100422.94;;;20.23;42.69
55757;BME280;41676;44.610;44.078;2023-06-22T19:01:15;100529.22;;;20.82;43.11
55757;BME280;41676;44.610;44.078;2023-06-22T19:12:21;100542.00;;;20.87;43.99
55757;BME280;41676;44.610;44.078;2023-06-22T19:17:22;100519.97;;;20.60;44.52
55757;BME280;41676;44.610;44.078;2023-06-22T19:22:54;100545.94;;;20.72;46.16
55757;BME280;41676;44.610;44.078;2023-06-22T19:27:56;100508.66;;;20.21;46.88
55757;BME280;41676;44.610;44.078;2023-06-22T19:32:58;100558.06;;;20.33;46.67
55757;BME280;41676;44.610;44.078;2023-06-22T19:38:00;100530.00;;;20.04;47.26
55757;BME280;41676;44.610;44.078;2023-06-22T19:43:00;100532.25;;;19.89;48.63
55757;BME280;41676;44.610;44.078;2023-06-22T19:48:01;100544.19;;;19.81;49.05
55757;BME280;41676;44.610;44.078;2023-06-22T19:53:02;100565.22;;;19.72;49.55
55757;BME280;41676;44.610;44.078;2023-06-22T19:58:04;100558.41;;;19.45;50.32
55757;BME280;41676;44.610;44.078;2023-06-22T20:03:09;100568.72;;;19.23;53.00
55757;BME280;41676;44.610;44.078;2023-06-22T20:08:11;100559.56;;;18.99;53.37
55757;BME280;41676;44.610;44.078;2023-06-22T20:13:15;100572.59;;;19.02;52.45
55757;BME280;41676;44.610;44.078;2023-06-22T20:18:17;100488.31;;;18.38;52.89
55757;BME280;41676;44.610;44.078;2023-06-22T20:23:20;100561.59;;;18.71;54.24
55757;BME280;41676;44.610;44.078;2023-06-22T20:28:25;100579.72;;;18.89;53.39
55757;BME280;41676;44.610;44.078;2023-06-22T20:33:26;100554.69;;;18.89;50.46
55757;BME280;41676;44.610;44.078;2023-06-22T20:38:27;100579.94;;;19.20;48.12
55757;BME280;41676;44.610;44.078;2023-06-22T20:43:28;100527.19;;;19.12;46.61
55757;BME280;41676;44.610;44.078;2023-06-22T20:48:29;100481.94;;;18.96;44.95
55757;BME280;41676;44.610;44.078;2023-06-22T20:53:31;100495.53;;;19.07;43.90
55757;BME280;41676;44.610;44.078;2023-06-22T20:58:32;100510.97;;;19.19;43.08
55757;BME280;41676;44.610;44.078;2023-06-22T21:03:33;100566.78;;;19.55;42.72
55757;BME280;41676;44.610;44.078;2023-06-22T21:08:34;100573.78;;;19.63;41.99
55757;BME280;41676;44.610;44.078;2023-06-22T21:13:36;100482.06;;;19.07;42.09
55757;BME280;41676;44.610;44.078;2023-06-22T21:18:37;100506.19;;;19.21;41.39
55757;BME280;41676;44.610;44.078;2023-06-22T21:23:38;100508.59;;;19.29;41.49
55757;BME280;41676;44.610;44.078;2023-06-22T21:28:38;100586.16;;;19.70;40.95
55757;BME280;41676;44.610;44.078;2023-06-22T21:33:39;100574.78;;;19.68;41.38
55757;BME280;41676;44.610;44.078;2023-06-22T21:38:40;100568.38;;;19.63;42.19
55757;BME280;41676;44.610;44.078;2023-06-22T21:43:41;100535.06;;;19.32;42.67
55757;BME280;41676;44.610;44.078;2023-06-22T21:48:41;100542.28;;;19.13;43.40
55757;BME280;41676;44.610;44.078;2023-06-22T21:53:42;100561.63;;;19.03;44.57
55757;BME280;41676;44.610;44.078;2023-06-22T21:58:43;100566.50;;;18.88;45.37
55757;BME280;41676;44.610;44.078;2023-06-22T22:03:44;100489.63;;;18.29;46.55
55757;BME280;41676;44.610;44.078;2023-06-22T22:08:44;100559.56;;;18.60;47.43
55757;BME280;41676;44.610;44.078;2023-06-22T22:13:45;100565.44;;;18.51;48.20
55757;BME280;41676;44.610;44.078;2023-06-22T22:18:46;100537.88;;;18.17;48.77
55757;BME280;41676;44.610;44.078;2023-06-22T22:23:50;100492.09;;;17.72;49.90
55757;BME280;41676;44.610;44.078;2023-06-22T22:28:51;100526.41;;;17.83;50.58
55757;BME280;41676;44.610;44.078;2023-06-22T22:33:52;100557.81;;;17.89;50.81
55757;BME280;41676;44.610;44.078;2023-06-22T22:38:52;100517.97;;;17.60;50.62
55757;BME280;41676;44.610;44.078;2023-06-22T22:43:54;100537.59;;;17.60;50.55
55757;BME280;41676;44.610;44.078;2023-06-22T22:48:56;100529.53;;;17.40;50.66
55757;BME280;41676;44.610;44.078;2023-06-22T22:53:56;100516.56;;;17.17;51.40
55757;BME280;41676;44.610;44.078;2023-06-22T22:58:57;100554.75;;;17.19;52.23
55757;BME280;41676;44.610;44.078;2023-06-22T23:03:58;100551.25;;;17.05;54.68
55757;BME280;41676;44.610;44.078;2023-06-22T23:08:59;100552.91;;;16.93;55.63
55757;BME280;41676;44.610;44.078;2023-06-22T23:13:59;100555.94;;;16.77;56.35
55757;BME280;41676;44.610;44.078;2023-06-22T23:19:00;100473.63;;;16.09;57.59
55757;BME280;41676;44.610;44.078;2023-06-22T23:24:02;100556.81;;;16.29;59.36
55757;BME280;41676;44.610;44.078;2023-06-22T23:29:03;100571.22;;;16.22;59.20
55757;BME280;41676;44.610;44.078;2023-06-22T23:34:05;100554.63;;;16.05;59.25
55757;BME280;41676;44.610;44.078;2023-06-22T23:39:06;100542.03;;;15.98;59.48
55757;BME280;41676;44.610;44.078;2023-06-22T23:44:06;100562.06;;;16.09;59.38
55757;BME280;41676;44.610;44.078;2023-06-22T23:49:07;100570.00;;;15.89;59.94
55757;BME280;41676;44.610;44.078;2023-06-22T23:54:08;100562.66;;;15.70;60.89
55757;BME280;41676;44.610;44.078;2023-06-22T23:59:09;100566.25;;;15.77;60.88
